Time;durP1;ratioP1;P1;durP2;ratioP2;P2;SDS_P1;SDS_P2;PMS_P1;PMS_P2;Temp;Humidity;BMP_temperature;BMP_pressure;BME280_temperature;BME280_humidity;BME280_pressure;Samples;Min_cycle;Max_cycle;Signal;HPM_P1;HPM_P2
2021/09/27 00:00:00;;;;;;;2.30;0.95;;;;;;;18.48;72.70;99611.31;4950855;28;20039;-74
2021/09/27 00:02:27;;;;;;;2.88;0.70;;;;;;;18.47;72.70;99627.13;4950762;28;20031;-74
2021/09/27 00:04:52;;;;;;;0.95;0.40;;;;;;;18.47;72.70;99604.16;4974455;28;20038;-76
2021/09/27 00:07:17;;;;;;;1.42;0.47;;;;;;;18.48;72.57;99601.03;4976650;28;20030;-75
2021/09/27 00:09:44;;;;;;;1.30;0.73;;;;;;;18.52;72.62;99598.44;4957562;28;20058;-78
2021/09/27 00:12:10;;;;;;;2.47;0.63;;;;;;;18.53;72.38;99608.34;4960754;28;20027;-77
2021/09/27 00:14:38;;;;;;;9.77;0.80;;;;;;;18.54;72.68;99618.25;4983327;28;20038;-77
2021/09/27 00:17:07;;;;;;;1.48;0.85;;;;;;;18.56;72.13;99602.13;4968425;28;20038;-76
2021/09/27 00:19:34;;;;;;;4.20;0.63;;;;;;;18.61;72.30;99593.59;4973582;28;20018;-76
2021/09/27 00:22:00;;;;;;;4.38;0.95;;;;;;;18.62;71.83;99598.00;4964923;28;20473;-76
2021/09/27 00:24:26;;;;;;;4.93;1.02;;;;;;;18.52;74.11;99606.72;4967749;28;20041;-73
2021/09/27 00:26:52;;;;;;;6.65;0.65;;;;;;;18.29;74.73;99598.75;4967675;28;20101;-75
2021/09/27 00:29:17;;;;;;;2.85;0.60;;;;;;;18.04;75.93;99602.56;4985522;28;20041;-73
2021/09/27 00:31:42;;;;;;;4.25;2.35;;;;;;;17.80;78.28;99593.72;4944658;28;20044;-73
2021/09/27 00:34:08;;;;;;;1.38;0.85;;;;;;;17.71;78.33;99586.63;4970337;28;20047;-72
2021/09/27 00:36:33;;;;;;;1.25;0.50;;;;;;;17.58;79.17;99580.19;4971186;28;20034;-74
2021/09/27 00:38:59;;;;;;;2.00;0.50;;;;;;;17.52;79.94;99565.78;4950068;28;20066;-74
2021/09/27 00:41:25;;;;;;;3.60;0.50;;;;;;;17.50;80.21;99561.72;4954116;28;20029;-74
2021/09/27 00:43:51;;;;;;;1.83;0.60;;;;;;;17.47;80.57;99562.38;4965528;28;20031;-73
2021/09/27 00:46:20;;;;;;;13.13;1.20;;;;;;;17.37;81.06;99546.97;4973304;28;20050;-73
2021/09/27 00:48:46;;;;;;;3.38;0.70;;;;;;;17.33;81.15;99565.38;4975041;28;20474;-72
2021/09/27 00:51:15;;;;;;;1.23;0.73;;;;;;;17.32;81.76;99552.69;4957972;28;20041;-71
2021/09/27 00:53:46;;;;;;;1.08;0.60;;;;;;;17.27;81.84;99557.28;4966343;28;20035;-70
2021/09/27 00:56:15;;;;;;;2.35;0.50;;;;;;;17.24;82.50;99546.91;4964779;28;20105;-72
2021/09/27 00:58:42;;;;;;;2.78;0.75;;;;;;;17.16;82.68;99542.22;4968466;28;20022;-72
2021/09/27 01:01:08;;;;;;;1.10;0.47;;;;;;;17.10;83.50;99555.41;4976199;28;20034;-70
2021/09/27 01:03:34;;;;;;;4.82;1.00;;;;;;;17.08;83.12;99541.13;4950253;28;20031;-71
2021/09/27 01:06:12;;;;;;;2.17;0.52;;;;;;;17.06;83.42;99542.59;4956494;28;20101;-71
2021/09/27 01:08:37;;;;;;;6.90;1.17;;;;;;;17.01;84.14;99528.94;4953956;28;20113;-72
2021/09/27 01:11:03;;;;;;;3.28;1.00;;;;;;;16.92;84.29;99527.03;4969922;28;20080;-71
2021/09/27 01:13:46;;;;;;;2.88;0.98;;;;;;;16.98;84.12;99535.13;4978108;28;20027;-75
2021/09/27 01:16:25;;;;;;;2.15;0.52;;;;;;;16.94;84.59;99529.47;4984684;28;20050;-76
2021/09/27 01:19:13;;;;;;;3.53;0.80;;;;;;;16.94;84.88;99523.94;4984931;28;20042;-75
2021/09/27 01:21:39;;;;;;;6.13;1.08;;;;;;;16.90;84.65;99532.06;4982173;28;20023;-75
2021/09/27 01:24:08;;;;;;;3.05;0.75;;;;;;;16.91;84.63;99508.84;4980040;28;20026;-77
2021/09/27 01:26:39;;;;;;;3.05;0.65;;;;;;;16.89;84.60;99500.09;4977896;28;20023;-77
2021/09/27 01:29:28;;;;;;;8.80;1.17;;;;;;;16.93;84.19;99495.50;4968119;28;20027;-77
2021/09/27 01:32:19;;;;;;;4.78;1.05;;;;;;;16.93;84.46;99503.78;4945010;28;20110;-77
2021/09/27 01:34:51;;;;;;;11.98;1.23;;;;;;;16.92;84.39;99493.91;4969478;28;20039;-77
2021/09/27 01:37:35;;;;;;;1.95;1.10;;;;;;;17.01;84.49;99491.09;4977321;28;20037;-74
2021/09/27 01:40:15;;;;;;;1.98;0.52;;;;;;;17.05;83.67;99488.47;4976844;28;20495;-75
2021/09/27 01:42:48;;;;;;;6.78;1.17;;;;;;;17.08;84.42;99490.56;4979815;28;20026;-74
2021/09/27 01:45:25;;;;;;;5.32;1.27;;;;;;;17.06;83.79;99477.09;4978788;28;20121;-76
2021/09/27 01:48:14;;;;;;;4.13;1.42;;;;;;;17.12;83.90;99474.97;4971519;28;20058;-76
2021/09/27 01:50:57;;;;;;;9.90;2.10;;;;;;;17.05;84.52;99458.91;4977219;28;20034;-76
2021/09/27 01:53:30;;;;;;;20.08;1.10;;;;;;;17.07;84.53;99464.13;4976255;28;20061;-76
2021/09/27 01:56:10;;;;;;;1.45;0.90;;;;;;;17.14;84.30;99445.03;4961393;28;20038;-75
2021/09/27 01:58:35;;;;;;;8.15;1.23;;;;;;;17.18;83.91;99432.19;4979370;28;20027;-75
2021/09/27 02:01:06;;;;;;;4.75;0.63;;;;;;;17.19;84.18;99425.53;4985236;28;20040;-76
2021/09/27 02:03:41;;;;;;;18.52;2.75;;;;;;;17.17;83.97;99416.78;4976353;28;20058;-76
2021/09/27 02:06:17;;;;;;;;;;;;;;;17.21;84.49;99403.88;4976267;28;20027;-76
2021/09/27 02:08:58;;;;;;;4.07;1.25;;;;;;;17.23;84.16;99415.41;4977869;28;19937;-75
2021/09/27 02:11:27;;;;;;;4.28;1.08;;;;;;;17.26;84.42;99420.28;4979632;28;20023;-76
2021/09/27 02:14:02;;;;;;;10.70;1.60;;;;;;;17.28;84.06;99395.88;4980883;28;20441;-76
2021/09/27 02:16:40;;;;;;;7.47;1.07;;;;;;;17.31;84.52;99410.19;4970278;28;20027;-77
2021/09/27 02:19:21;;;;;;;3.67;1.58;;;;;;;17.36;84.57;99387.84;4972556;28;20340;-76
2021/09/27 02:21:51;;;;;;;3.47;1.17;;;;;;;17.36;83.91;99363.00;4972879;28;20086;-76
2021/09/27 02:24:40;;;;;;;6.15;1.33;;;;;;;17.42;83.82;99375.44;4967337;28;20041;-75
2021/09/27 02:27:05;;;;;;;5.88;1.35;;;;;;;17.42;84.21;99356.09;4969678;28;20104;-73
2021/09/27 02:29:33;;;;;;;5.63;1.70;;;;;;;17.40;84.29;99347.34;4979261;28;20026;-76
2021/09/27 02:32:02;;;;;;;11.55;1.58;;;;;;;17.38;84.46;99341.38;4981229;28;20043;-76
2021/09/27 02:34:55;;;;;;;6.35;1.08;;;;;;;17.43;83.98;99338.38;4969339;28;20026;-75
2021/09/27 02:37:31;;;;;;;3.60;1.20;;;;;;;17.43;84.44;99338.38;4981822;28;20034;-76
2021/09/27 02:40:01;;;;;;;10.95;1.80;;;;;;;17.48;83.80;99337.38;4984167;28;20033;-76
2021/09/27 02:42:30;;;;;;;9.98;1.20;;;;;;;17.43;83.98;99324.56;4965300;28;20059;-76
2021/09/27 02:44:58;;;;;;;5.72;1.30;;;;;;;17.42;84.26;99334.00;4963210;28;20023;-77
2021/09/27 02:47:38;;;;;;;7.30;1.77;;;;;;;17.50;84.51;99313.78;4983520;28;20393;-76
2021/09/27 02:50:06;;;;;;;3.92;1.23;;;;;;;17.51;83.85;99311.81;4983406;28;20034;-75
2021/09/27 02:52:32;;;;;;;5.10;0.88;;;;;;;17.50;83.96;99313.78;4961785;28;20030;-75
2021/09/27 02:55:02;;;;;;;2.90;1.13;;;;;;;17.52;83.95;99308.72;4959462;28;20027;-77
2021/09/27 02:57:46;;;;;;;5.07;1.50;;;;;;;17.52;84.34;99294.91;4966000;28;20097;-76
2021/09/27 03:00:32;;;;;;;7.90;1.42;;;;;;;17.49;83.95;99290.03;4977119;28;20042;-76
2021/09/27 03:03:09;;;;;;;;;;;;;;;17.52;84.10;99274.75;4975606;28;20094;-74
2021/09/27 03:06:21;;;;;;;8.70;2.05;;;;;;;17.47;84.23;99281.28;4982514;28;19957;-74
2021/09/27 03:09:05;;;;;;;16.70;1.25;;;;;;;17.43;84.34;99269.31;4953200;28;20041;-76
2021/09/27 03:11:52;;;;;;;10.77;1.77;;;;;;;17.51;84.51;99267.59;4963441;28;20046;-75
2021/09/27 03:14:35;;;;;;;3.78;1.40;;;;;;;17.53;83.73;99263.34;4962320;28;20038;-75
2021/09/27 03:17:18;;;;;;;9.75;2.13;;;;;;;17.55;84.12;99254.72;4969511;28;20031;-74
2021/09/27 03:20:26;;;;;;;5.40;1.88;;;;;;;17.63;83.68;99254.63;4980265;28;20023;-76
2021/09/27 03:23:22;;;;;;;5.72;1.60;;;;;;;17.60;83.58;99244.25;4973753;28;20070;-76
2021/09/27 03:26:26;;;;;;;4.18;1.55;;;;;;;17.60;83.86;99235.94;4957397;28;20025;-75
2021/09/27 03:29:09;;;;;;;3.67;1.35;;;;;;;17.62;83.54;99225.38;4976890;28;20029;-74
2021/09/27 03:32:10;;;;;;;11.70;1.55;;;;;;;17.70;83.43;99220.09;4982489;28;20043;-75
2021/09/27 03:35:02;;;;;;;10.38;1.50;;;;;;;17.68;82.86;99214.09;4975787;28;20032;-75
2021/09/27 03:38:00;;;;;;;9.52;1.67;;;;;;;17.70;83.23;99214.56;4972512;28;20055;-76
2021/09/27 03:40:58;;;;;;;7.85;1.35;;;;;;;17.70;82.20;99212.59;4941953;28;20038;-76
2021/09/27 03:43:50;;;;;;;6.68;1.50;;;;;;;17.76;82.18;99221.47;4981284;28;20034;-75
2021/09/27 03:46:48;;;;;;;13.85;1.98;;;;;;;17.74;82.38;99215.47;4970065;28;20030;-74
2021/09/27 03:49:17;;;;;;;9.27;1.58;;;;;;;17.71;82.13;99208.69;4965539;28;20484;-74
2021/09/27 03:52:00;;;;;;;11.23;1.60;;;;;;;17.71;81.86;99191.28;4960797;28;20039;-73
2021/09/27 03:54:47;;;;;;;3.75;1.48;;;;;;;17.67;80.99;99195.88;4980484;28;20076;-74
2021/09/27 03:57:20;;;;;;;5.18;1.40;;;;;;;17.68;81.53;99209.34;4971993;28;20038;-75
2021/09/27 03:59:52;;;;;;;10.07;1.80;;;;;;;17.65;81.38;99159.50;4964492;28;20041;-75
2021/09/27 04:02:30;;;;;;;11.77;1.35;;;;;;;17.63;80.82;99173.66;4986933;28;20022;-74
2021/09/27 04:05:15;;;;;;;4.40;1.55;;;;;;;17.56;81.75;99163.16;4982360;28;20034;-75
2021/09/27 04:08:06;;;;;;;8.25;1.25;;;;;;;17.44;82.09;99149.34;4966925;28;20089;-74
2021/09/27 04:10:51;;;;;;;10.57;1.60;;;;;;;17.35;82.45;99145.88;4968514;28;20117;-76
2021/09/27 04:13:41;;;;;;;9.48;1.67;;;;;;;17.23;83.35;99133.66;4987179;28;20033;-77
2021/09/27 04:16:28;;;;;;;7.68;1.67;;;;;;;17.17;83.74;99145.25;4967523;28;20110;-75
2021/09/27 04:19:08;;;;;;;5.00;1.08;;;;;;;17.05;84.03;99126.69;4974302;28;20027;-76
2021/09/27 04:22:08;;;;;;;12.02;1.42;;;;;;;16.98;84.60;99118.16;4964978;28;20027;-80
2021/09/27 04:24:39;;;;;;;6.03;1.52;;;;;;;17.00;84.54;99129.69;4965510;28;20031;-80
2021/09/27 04:27:23;;;;;;;3.20;1.05;;;;;;;16.98;84.63;99178.91;4977696;28;20043;-78
2021/09/27 04:30:11;;;;;;;;;;;;;;;;;;;;;
2021/09/27 04:32:46;;;;;;;2.17;1.05;;;;;;;16.88;85.53;99117.44;4991394;28;20066;-79
2021/09/27 04:35:38;;;;;;;5.97;1.02;;;;;;;16.86;85.75;99089.31;4991027;28;20082;-77
2021/09/27 04:41:08;;;;;;;2.22;0.80;;;;;;;16.84;86.07;99072.31;4971855;28;20046;-78
2021/09/27 04:44:24;;;;;;;3.05;0.75;;;;;;;16.84;86.42;99069.53;4973423;28;20037;-79
2021/09/27 04:47:18;;;;;;;2.67;0.98;;;;;;;16.81;85.98;99067.47;4930687;28;20110;-77
2021/09/27 04:50:08;;;;;;;2.15;0.65;;;;;;;16.81;86.81;99045.38;4966906;28;20022;-75
2021/09/27 04:53:25;;;;;;;2.85;0.52;;;;;;;16.77;86.29;99033.41;4962188;28;20091;-76
2021/09/27 04:56:32;;;;;;;2.03;0.80;;;;;;;16.75;86.62;99063.31;4922597;28;20038;-74
2021/09/27 04:59:29;;;;;;;1.48;0.80;;;;;;;16.70;87.23;99022.13;4961638;28;20067;-75
2021/09/27 05:02:19;;;;;;;2.25;0.77;;;;;;;16.73;87.16;99021.44;4956901;28;20038;-76
2021/09/27 05:05:16;;;;;;;1.83;0.43;;;;;;;16.76;86.95;99020.75;4968021;28;20097;-75
2021/09/27 05:07:45;;;;;;;0.40;0.30;;;;;;;16.71;87.01;99002.44;4957928;28;20039;-76
2021/09/27 05:10:34;;;;;;;1.55;0.45;;;;;;;16.79;86.96;99009.00;4978403;28;20037;-75
2021/09/27 05:13:12;;;;;;;1.67;0.50;;;;;;;16.75;87.71;98991.56;4968358;28;20027;-75
2021/09/27 05:16:21;;;;;;;0.40;0.30;;;;;;;16.70;87.41;98964.16;4954145;28;20574;-74
2021/09/27 05:19:22;;;;;;;0.93;0.20;;;;;;;16.80;87.61;98993.28;4962319;28;20066;-73
2021/09/27 05:21:47;;;;;;;0.75;0.22;;;;;;;16.78;87.80;98951.38;4901747;28;20493;-73
2021/09/27 05:24:27;;;;;;;1.00;0.50;;;;;;;16.78;87.56;98952.22;4974890;28;20121;-73
2021/09/27 05:27:30;;;;;;;0.88;0.60;;;;;;;16.81;88.04;98951.53;4958864;28;20460;-72
2021/09/27 05:30:26;;;;;;;0.65;0.25;;;;;;;16.82;87.98;98958.66;4970026;28;20022;-73
2021/09/27 05:33:16;;;;;;;0.50;0.38;;;;;;;16.83;87.92;98921.59;4968843;28;20110;-73
2021/09/27 05:36:01;;;;;;;0.47;0.25;;;;;;;16.81;88.06;98934.16;4949303;28;20134;-72
2021/09/27 05:38:44;;;;;;;0.90;0.90;;;;;;;16.80;87.77;98946.34;4974282;28;20037;-73
2021/09/27 05:41:39;;;;;;;1.42;0.30;;;;;;;16.84;88.16;98934.28;4971819;28;20072;-76
2021/09/27 05:44:19;;;;;;;1.42;0.73;;;;;;;16.88;88.10;98918.66;4955378;28;20035;-74
2021/09/27 05:47:10;;;;;;;0.82;0.50;;;;;;;16.81;88.14;98920.38;4974909;28;20019;-74
2021/09/27 05:50:02;;;;;;;1.13;0.52;;;;;;;16.79;88.43;98953.81;4956482;28;20026;-73
2021/09/27 05:52:34;;;;;;;0.30;0.30;;;;;;;16.87;88.75;98941.91;4971650;28;20034;-73
2021/09/27 05:55:22;;;;;;;1.35;0.70;;;;;;;16.89;88.83;98919.47;4971563;28;20700;-73
2021/09/27 05:58:03;;;;;;;2.70;0.63;;;;;;;16.85;88.92;98919.31;4971698;28;20472;-74
2021/09/27 06:01:01;;;;;;;6.32;0.75;;;;;;;16.85;88.98;98938.66;4972407;28;20054;-76
2021/09/27 06:03:27;;;;;;;2.45;0.60;;;;;;;16.81;88.80;98972.81;4958804;28;20559;-77
2021/09/27 06:06:18;;;;;;;1.70;0.20;;;;;;;16.40;85.69;99031.34;4964546;28;20039;-77
2021/09/27 06:09:12;;;;;;;1.58;0.32;;;;;;;14.97;82.25;99076.13;4958337;28;20030;-74
2021/09/27 06:11:56;;;;;;;0.65;0.20;;;;;;;13.75;83.91;99110.69;4966379;28;20054;-77
2021/09/27 06:14:44;;;;;;;0.32;0.10;;;;;;;12.97;85.70;99085.69;4948731;28;20445;-75
2021/09/27 06:17:54;;;;;;;;;;;;;;;;;;;;;
2021/09/27 06:20:52;;;;;;;0.40;0.17;;;;;;;12.10;87.71;99135.19;4971552;28;20095;-76
2021/09/27 06:23:40;;;;;;;1.25;0.40;;;;;;;11.95;88.29;99115.22;4971745;28;20106;-76
2021/09/27 06:26:09;;;;;;;0.10;0.10;;;;;;;11.78;89.05;99101.31;4973765;28;20070;-77
2021/09/27 06:28:38;;;;;;;1.67;0.10;;;;;;;11.81;89.37;99144.50;4972169;28;20403;-75
2021/09/27 06:31:14;;;;;;;0.55;0.10;;;;;;;11.77;90.03;99136.09;4953700;28;20059;-78
2021/09/27 06:33:50;;;;;;;0.30;0.10;;;;;;;11.73;90.05;99154.25;4976419;28;20652;-76
2021/09/27 06:36:21;;;;;;;0.08;0.05;;;;;;;11.66;89.47;99149.19;4981365;28;20516;-76
2021/09/27 06:38:54;;;;;;;0.25;0.15;;;;;;;11.65;89.58;99164.00;4967222;28;20035;-77
2021/09/27 06:41:23;;;;;;;0.30;0.08;;;;;;;11.60;89.60;99163.28;4955595;28;20138;-78
2021/09/27 06:43:49;;;;;;;0.30;0.17;;;;;;;11.57;90.30;99194.81;4963618;28;20544;-78
2021/09/27 06:46:15;;;;;;;0.63;0.10;;;;;;;11.51;89.69;99179.59;4945052;28;20081;-76
2021/09/27 06:48:40;;;;;;;0.65;0.17;;;;;;;11.45;90.32;99186.31;4961007;28;20038;-76
2021/09/27 06:51:06;;;;;;;0.08;0.00;;;;;;;11.43;90.23;99183.84;4963453;28;20042;-77
2021/09/27 06:53:31;;;;;;;0.28;0.00;;;;;;;11.44;89.85;99179.19;4936331;28;20034;-74
2021/09/27 06:56:00;;;;;;;0.60;0.30;;;;;;;11.51;90.23;99168.66;4955985;28;20469;-75
2021/09/27 06:58:26;;;;;;;0.55;0.20;;;;;;;11.57;90.30;99205.78;4978405;28;20030;-77
2021/09/27 07:00:54;;;;;;;0.15;0.10;;;;;;;11.64;90.07;99217.13;4963573;28;20030;-79
2021/09/27 07:03:20;;;;;;;0.20;0.20;;;;;;;11.65;90.27;99215.19;4942228;28;20038;-77
2021/09/27 07:05:46;;;;;;;0.32;0.17;;;;;;;11.68;90.48;99226.38;4953811;28;20027;-75
2021/09/27 07:08:12;;;;;;;0.15;0.10;;;;;;;11.69;89.97;99241.66;4968218;28;20077;-74
2021/09/27 07:10:38;;;;;;;0.10;0.10;;;;;;;11.74;90.36;99242.69;4978143;28;20103;-75
2021/09/27 07:13:03;;;;;;;0.00;0.00;;;;;;;11.76;89.72;99256.91;4970349;28;20063;-76
2021/09/27 07:15:29;;;;;;;0.20;0.20;;;;;;;11.78;89.76;99271.09;4963067;28;20066;-76
2021/09/27 07:17:54;;;;;;;0.17;0.10;;;;;;;11.72;89.65;99283.28;4979149;28;20026;-76
2021/09/27 07:20:25;;;;;;;2.20;0.10;;;;;;;11.67;89.60;99303.34;4983589;28;20473;-71
2021/09/27 07:22:51;;;;;;;0.85;0.20;;;;;;;11.60;89.42;99308.41;4979814;28;20026;-74
2021/09/27 07:25:19;;;;;;;0.20;0.10;;;;;;;11.60;89.45;99331.13;4963671;28;20127;-74
2021/09/27 07:27:45;;;;;;;0.63;0.20;;;;;;;11.58;89.54;99332.53;4981615;28;20385;-74
2021/09/27 07:30:12;;;;;;;0.10;0.10;;;;;;;11.54;89.56;99329.56;4982914;28;20038;-75
2021/09/27 07:32:38;;;;;;;0.20;0.20;;;;;;;11.54;89.11;99351.47;4959786;28;20071;-73
2021/09/27 07:35:05;;;;;;;0.38;0.25;;;;;;;11.53;89.55;99344.38;4961809;28;20110;-75
2021/09/27 07:37:31;;;;;;;0.20;0.10;;;;;;;11.56;89.57;99362.94;4946378;28;20027;-73
2021/09/27 07:39:56;;;;;;;1.83;0.35;;;;;;;11.64;89.95;99359.53;4950624;28;20038;-73
2021/09/27 07:42:21;;;;;;;0.95;0.60;;;;;;;11.78;89.49;99364.22;4953026;29;20494;-73
2021/09/27 07:44:47;;;;;;;0.45;0.40;;;;;;;11.88;89.28;99370.38;4958476;28;20042;-74
2021/09/27 07:47:12;;;;;;;1.20;0.40;;;;;;;11.97;89.63;99378.75;4959624;29;20027;-73
2021/09/27 07:49:38;;;;;;;0.55;0.32;;;;;;;12.04;89.45;99381.06;4978218;28;20032;-73
2021/09/27 07:52:04;;;;;;;1.30;0.32;;;;;;;12.15;89.50;99390.75;4946000;29;20405;-73
2021/09/27 07:54:29;;;;;;;0.47;0.47;;;;;;;12.28;89.62;99411.06;4959955;28;20038;-74
2021/09/27 07:56:55;;;;;;;0.90;0.40;;;;;;;12.37;88.95;99409.25;4964285;28;20027;-73
2021/09/27 07:59:21;;;;;;;0.32;0.32;;;;;;;12.51;89.37;99435.88;4960559;28;20031;-74
2021/09/27 08:01:46;;;;;;;0.50;0.40;;;;;;;12.57;88.47;99429.16;4963326;28;20031;-74
2021/09/27 08:04:15;;;;;;;1.08;0.75;;;;;;;12.63;88.45;99444.41;4964087;28;20552;-74
2021/09/27 08:06:41;;;;;;;4.57;0.90;;;;;;;12.68;88.89;99459.97;4962476;29;20027;-74
2021/09/27 08:09:08;;;;;;;1.95;1.05;;;;;;;12.68;88.64;99463.50;4956733;28;20122;-73
2021/09/27 08:11:34;;;;;;;3.00;0.63;;;;;;;12.83;88.48;99497.25;4950976;28;20043;-74
2021/09/27 08:14:00;;;;;;;3.08;0.75;;;;;;;12.98;88.64;99475.03;4942953;29;20023;-73
2021/09/27 08:16:25;;;;;;;0.50;0.40;;;;;;;13.12;87.75;99488.72;4957734;28;20386;-73
2021/09/27 08:18:50;;;;;;;2.50;0.82;;;;;;;13.29;87.17;99499.09;4959670;29;20039;-73
2021/09/27 08:21:18;;;;;;;4.25;1.02;;;;;;;13.53;86.96;99503.56;4948318;29;20454;-75
2021/09/27 08:23:45;;;;;;;1.13;0.40;;;;;;;13.78;86.10;99527.72;4966797;28;20087;-73
2021/09/27 08:26:11;;;;;;;0.52;0.40;;;;;;;13.94;85.79;99532.84;4962834;28;20031;-74
2021/09/27 08:28:38;;;;;;;0.38;0.38;;;;;;;13.96;84.78;99536.91;4956102;28;20405;-76
2021/09/27 08:31:07;;;;;;;1.17;0.30;;;;;;;13.84;84.80;99541.31;4956071;28;20044;-75
2021/09/27 08:33:33;;;;;;;1.45;0.40;;;;;;;13.84;85.30;99552.31;4976977;28;20511;-75
2021/09/27 08:36:00;;;;;;;2.40;0.30;;;;;;;13.91;84.77;99563.69;4964352;28;20058;-74
2021/09/27 08:38:27;;;;;;;1.55;0.20;;;;;;;14.02;84.31;99565.09;4970458;28;20139;-75
2021/09/27 08:41:13;;;;;;;1.50;0.40;;;;;;;14.17;83.94;99587.88;4979472;28;20035;-74
2021/09/27 08:43:57;;;;;;;0.20;0.20;;;;;;;14.19;82.50;99594.66;4978750;28;20158;-75
2021/09/27 08:46:51;;;;;;;0.15;0.10;;;;;;;14.27;82.85;99612.38;4979557;28;20096;-75
2021/09/27 08:49:39;;;;;;;3.00;0.30;;;;;;;14.46;81.73;99615.75;4976767;28;20057;-76
2021/09/27 08:52:07;;;;;;;0.47;0.20;;;;;;;14.82;81.38;99617.69;4940820;28;20070;-76
2021/09/27 08:54:34;;;;;;;0.47;0.20;;;;;;;15.22;79.92;99636.19;4981737;28;20063;-77
2021/09/27 08:57:12;;;;;;;0.75;0.20;;;;;;;15.50;78.82;99638.75;4981285;28;20023;-76
2021/09/27 08:59:49;;;;;;;1.65;0.38;;;;;;;15.67;77.75;99649.84;4960008;28;20031;-75
2021/09/27 09:02:30;;;;;;;6.07;0.30;;;;;;;15.97;77.00;99652.03;4975366;28;20419;-76
2021/09/27 09:05:10;;;;;;;1.13;0.25;;;;;;;16.28;75.94;99656.63;4958365;28;20049;-75
2021/09/27 09:07:48;;;;;;;0.20;0.20;;;;;;;16.45;75.55;99653.88;4980309;28;20023;-74
2021/09/27 09:10:20;;;;;;;1.30;0.20;;;;;;;16.74;74.00;99647.72;4973701;28;20026;-75
2021/09/27 09:12:51;;;;;;;1.00;0.20;;;;;;;16.91;74.06;99682.81;4960564;28;20768;-76
2021/09/27 09:15:25;;;;;;;1.95;0.68;;;;;;;17.07;72.46;99683.13;4976667;28;20042;-77
2021/09/27 09:17:56;;;;;;;1.75;0.43;;;;;;;17.25;72.32;99686.63;4977910;28;20027;-75
2021/09/27 09:20:27;;;;;;;3.13;0.50;;;;;;;17.43;70.49;99678.28;4973980;28;20039;-75
2021/09/27 09:22:53;;;;;;;2.38;0.52;;;;;;;17.44;70.06;99685.47;4970327;28;20023;-74
2021/09/27 09:25:27;;;;;;;0.47;0.35;;;;;;;17.55;70.45;99692.25;4962842;28;20112;-75
2021/09/27 09:27:55;;;;;;;0.75;0.20;;;;;;;17.73;69.89;99698.50;4975212;28;20046;-76
2021/09/27 09:30:33;;;;;;;0.75;0.10;;;;;;;18.17;69.53;99716.88;4978328;28;20050;-75
2021/09/27 09:32:59;;;;;;;0.30;0.17;;;;;;;18.54;70.10;99703.28;4960160;28;20047;-77
2021/09/27 09:35:28;;;;;;;3.60;0.35;;;;;;;18.82;66.99;99714.63;4966006;28;20030;-74
2021/09/27 09:38:00;;;;;;;1.27;0.13;;;;;;;18.91;65.81;99742.28;4980830;28;20030;-76
2021/09/27 09:40:28;;;;;;;0.30;0.30;;;;;;;18.61;67.79;99726.50;4979236;28;20022;-74
2021/09/27 09:43:13;;;;;;;1.15;0.30;;;;;;;19.09;68.10;99731.88;4955506;28;20047;-76
2021/09/27 09:45:43;;;;;;;1.55;0.13;;;;;;;19.06;66.28;99735.31;4963226;28;20034;-77
2021/09/27 09:48:36;;;;;;;0.52;0.28;;;;;;;19.00;64.80;99757.69;4973821;28;20037;-76
2021/09/27 09:51:32;;;;;;;0.57;0.30;;;;;;;19.20;66.61;99774.59;4972453;28;20047;-75
2021/09/27 09:54:10;;;;;;;1.38;0.20;;;;;;;19.55;63.82;99760.41;4972595;28;20039;-76
2021/09/27 09:56:39;;;;;;;2.50;0.25;;;;;;;19.42;64.17;99769.84;4974120;28;20055;-75
2021/09/27 09:59:35;;;;;;;0.55;0.30;;;;;;;19.80;64.17;99779.91;4975898;28;20055;-75
2021/09/27 10:02:07;;;;;;;1.10;0.10;;;;;;;20.48;63.96;99786.88;4977371;28;20033;-75
2021/09/27 10:04:38;;;;;;;0.13;0.10;;;;;;;21.47;62.41;99808.88;4975422;28;20033;-74
2021/09/27 10:07:14;;;;;;;2.70;0.40;;;;;;;21.89;58.43;99797.31;4960516;28;20022;-75
2021/09/27 10:09:55;;;;;;;0.30;0.10;;;;;;;21.45;58.66;99818.38;4979755;28;20027;-76
2021/09/27 10:12:40;;;;;;;0.65;0.32;;;;;;;21.05;57.14;99826.75;4977525;28;20038;-74
2021/09/27 10:15:07;;;;;;;0.35;0.20;;;;;;;20.65;61.20;99816.38;4977726;28;20041;-76
2021/09/27 10:17:38;;;;;;;4.40;0.20;;;;;;;20.27;59.23;99832.25;4977665;28;20504;-75
2021/09/27 10:20:17;;;;;;;2.40;0.28;;;;;;;19.77;62.34;99838.81;4980607;28;20120;-75
2021/09/27 10:22:54;;;;;;;0.65;0.10;;;;;;;19.35;59.55;99843.28;4975295;28;20049;-72
2021/09/27 10:25:46;;;;;;;0.52;0.20;;;;;;;18.86;61.87;99831.09;4974694;28;20046;-74
2021/09/27 10:28:18;;;;;;;1.85;0.20;;;;;;;18.52;61.67;99850.34;4979253;28;20038;-75
2021/09/27 10:30:46;;;;;;;0.35;0.10;;;;;;;18.49;62.63;99853.78;4980260;28;20038;-76
2021/09/27 10:33:26;;;;;;;0.80;0.20;;;;;;;18.59;62.12;99867.25;4962242;28;20112;-75
2021/09/27 10:35:57;;;;;;;0.85;0.17;;;;;;;18.33;61.27;99880.41;4977314;28;20477;-75
2021/09/27 10:38:34;;;;;;;4.50;0.10;;;;;;;18.31;63.28;99876.00;4968096;28;20134;-76
2021/09/27 10:41:14;;;;;;;0.95;0.10;;;;;;;18.17;63.76;99867.09;4967963;28;20049;-76
2021/09/27 10:43:41;;;;;;;1.40;0.13;;;;;;;17.88;65.15;99871.38;4966239;28;20031;-74
2021/09/27 10:46:07;;;;;;;0.30;0.08;;;;;;;17.56;61.78;99881.81;4972094;28;20031;-75
2021/09/27 10:48:33;;;;;;;0.00;0.00;;;;;;;17.46;62.33;99876.63;4968303;28;20038;-74
2021/09/27 10:51:06;;;;;;;0.10;0.10;;;;;;;17.35;62.29;99891.94;4939977;28;20522;-76
2021/09/27 10:53:56;;;;;;;2.85;0.10;;;;;;;17.41;62.18;99901.69;4968887;28;20019;-76
2021/09/27 10:56:46;;;;;;;0.70;0.38;;;;;;;17.20;61.64;99902.31;4968092;28;20148;-75
2021/09/27 10:59:25;;;;;;;2.42;0.08;;;;;;;18.17;60.83;99911.38;4973892;28;20034;-73
2021/09/27 11:01:50;;;;;;;0.17;0.10;;;;;;;19.53;58.79;99906.91;4968648;28;20026;-74
2021/09/27 11:04:31;;;;;;;3.20;0.20;;;;;;;20.15;57.44;99909.94;4963973;28;20055;-75
2021/09/27 11:07:16;;;;;;;0.73;0.20;;;;;;;20.71;54.91;99918.59;4973015;28;20027;-72
2021/09/27 11:09:44;;;;;;;0.47;0.10;;;;;;;21.57;50.68;99916.91;4945104;28;20027;-72
2021/09/27 11:12:24;;;;;;;0.13;0.10;;;;;;;22.45;52.46;99919.69;4971379;28;20101;-72
2021/09/27 11:14:56;;;;;;;0.10;0.00;;;;;;;23.26;47.38;99934.38;4965790;28;20035;-73
2021/09/27 11:17:33;;;;;;;0.40;0.10;;;;;;;24.04;47.73;99942.81;4971816;28;20066;-73
2021/09/27 11:20:06;;;;;;;0.55;0.10;;;;;;;24.08;45.40;99932.53;4967242;28;20027;-74
2021/09/27 11:22:53;;;;;;;2.90;0.10;;;;;;;24.62;43.59;99924.31;4968278;28;20022;-72
2021/09/27 11:25:22;;;;;;;3.42;0.20;;;;;;;25.23;44.48;99951.25;4965591;28;20022;-73
2021/09/27 11:28:12;;;;;;;0.38;0.10;;;;;;;25.90;41.27;99946.94;4970936;28;20030;-73
2021/09/27 11:30:42;;;;;;;0.20;0.10;;;;;;;26.11;39.30;99943.63;4970839;28;20027;-73
2021/09/27 11:33:32;;;;;;;1.65;0.32;;;;;;;26.49;39.72;99923.97;4971359;28;20049;-75
2021/09/27 11:36:05;;;;;;;1.85;0.20;;;;;;;26.81;37.83;99931.88;4961273;28;20042;-73
2021/09/27 11:38:40;;;;;;;0.28;0.20;;;;;;;27.24;37.62;99936.97;4963264;28;20035;-72
2021/09/27 11:41:11;;;;;;;0.98;0.30;;;;;;;27.36;34.07;99955.53;4967846;28;20027;-72
2021/09/27 11:43:58;;;;;;;0.45;0.10;;;;;;;27.50;35.77;99961.22;4956096;28;20035;-71
2021/09/27 11:46:32;;;;;;;0.35;0.10;;;;;;;27.86;34.58;99961.34;4972409;28;20026;-72
2021/09/27 11:49:22;;;;;;;0.43;0.10;;;;;;;28.31;34.04;99947.84;4966287;28;20039;-72
2021/09/27 11:52:29;;;;;;;1.30;0.20;;;;;;;28.79;33.47;99960.00;4965066;28;20022;-71
2021/09/27 11:54:57;;;;;;;1.95;0.30;;;;;;;29.04;31.05;99966.44;4958293;28;20046;-74
2021/09/27 11:57:39;;;;;;;0.38;0.20;;;;;;;29.03;29.75;99953.56;4966192;28;20101;-73
2021/09/27 12:00:05;;;;;;;1.13;0.30;;;;;;;28.67;28.24;99969.66;4964366;28;20505;-71
2021/09/27 12:03:08;;;;;;;0.32;0.25;;;;;;;28.88;29.35;99991.34;4969300;28;20022;-72
2021/09/27 12:05:50;;;;;;;0.30;0.20;;;;;;;29.13;27.07;99982.06;4972912;28;20041;-71
2021/09/27 12:08:49;;;;;;;0.30;0.10;;;;;;;29.31;26.68;99985.72;4974247;28;20023;-71
2021/09/27 12:11:17;;;;;;;0.13;0.08;;;;;;;28.83;27.03;100000.19;4967927;28;20118;-69
2021/09/27 12:13:55;;;;;;;0.30;0.17;;;;;;;28.72;28.41;100001.00;4952539;28;20034;-71
2021/09/27 12:16:30;;;;;;;0.17;0.10;;;;;;;28.84;28.17;100010.22;4972010;28;20029;-69
2021/09/27 12:19:02;;;;;;;0.43;0.22;;;;;;;29.28;26.83;99996.97;4971927;28;20661;-71
2021/09/27 12:21:38;;;;;;;0.10;0.10;;;;;;;29.20;25.92;100001.78;4971903;28;20465;-71
2021/09/27 12:24:08;;;;;;;0.82;0.30;;;;;;;29.38;25.58;100001.78;4967204;28;20385;-71